sensor_id;sensor_type;location;lat;lon;timestamp;pressure;altitude;pressure_sealevel;temperature;humidity
16431;BME280;8325;49.284;7.238;2023-05-01T04:02:29;98547.75;;;9.56;91.20
16431;BME280;8325;49.284;7.238;2023-05-01T04:06:40;98558.84;;;9.58;90.95
16431;BME280;8325;49.284;7.238;2023-05-01T04:10:52;98553.78;;;9.48;91.13
16431;BME280;8325;49.284;7.238;2023-05-01T04:15:04;98550.53;;;9.54;91.26
16431;BME280;8325;49.284;7.238;2023-05-01T04:19:15;98559.53;;;9.43;92.01
16431;BME280;8325;49.284;7.238;2023-05-01T04:23:30;98543.69;;;9.45;92.56
16431;BME280;8325;49.284;7.238;2023-05-01T04:27:43;98560.66;;;9.41;92.36
16431;BME280;8325;49.284;7.238;2023-05-01T04:31:56;98557.56;;;9.45;92.17
16431;BME280;8325;49.284;7.238;2023-05-01T04:36:07;98563.13;;;9.42;92.27
16431;BME280;8325;49.284;7.238;2023-05-01T04:40:19;98568.47;;;9.41;92.01
16431;BME280;8325;49.284;7.238;2023-05-01T04:44:31;98569.28;;;9.41;91.56
16431;BME280;8325;49.284;7.238;2023-05-01T04:48:44;98568.63;;;9.56;91.22
16431;BME280;8325;49.284;7.238;2023-05-01T04:52:56;98569.94;;;9.52;90.73
16431;BME280;8325;49.284;7.238;2023-05-01T04:57:08;98569.44;;;9.56;91.30
16431;BME280;8325;49.284;7.238;2023-05-01T05:01:19;98564.34;;;9.63;90.17
16431;BME280;8325;49.284;7.238;2023-05-01T05:05:32;98565.66;;;9.67;90.35
16431;BME280;8325;49.284;7.238;2023-05-01T05:09:44;98568.41;;;9.74;89.75
16431;BME280;8325;49.284;7.238;2023-05-01T05:13:56;98573.13;;;9.78;89.96
16431;BME280;8325;49.284;7.238;2023-05-01T05:18:08;98573.13;;;9.78;89.10
16431;BME280;8325;49.284;7.238;2023-05-01T05:22:20;98576.94;;;10.07;88.33
16431;BME280;8325;49.284;7.238;2023-05-01T05:26:51;98570.63;;;10.24;86.23
16431;BME280;8325;49.284;7.238;2023-05-01T05:31:03;98566.13;;;10.49;85.57
16431;BME280;8325;49.284;7.238;2023-05-01T05:35:15;98570.31;;;10.58;83.82
16431;BME280;8325;49.284;7.238;2023-05-01T05:39:27;98571.59;;;10.86;83.23
16431;BME280;8325;49.284;7.238;2023-05-01T05:43:39;98561.34;;;10.99;83.62
16431;BME280;8325;49.284;7.238;2023-05-01T05:47:52;98566.47;;;11.15;80.84
16431;BME280;8325;49.284;7.238;2023-05-01T05:52:03;98567.06;;;11.17;81.12
16431;BME280;8325;49.284;7.238;2023-05-01T05:56:15;98571.69;;;11.15;82.53
16431;BME280;8325;49.284;7.238;2023-05-01T06:00:28;98566.47;;;11.15;81.51
16431;BME280;8325;49.284;7.238;2023-05-01T06:04:44;98573.41;;;11.23;80.81
16431;BME280;8325;49.284;7.238;2023-05-01T06:08:57;98574.16;;;11.32;80.43
16431;BME280;8325;49.284;7.238;2023-05-01T06:13:09;98575.63;;;11.11;81.16
16431;BME280;8325;49.284;7.238;2023-05-01T06:17:28;98574.38;;;11.07;80.59
16431;BME280;8325;49.284;7.238;2023-05-01T06:21:39;98573.56;;;11.06;81.33
16431;BME280;8325;49.284;7.238;2023-05-01T06:25:53;98576.91;;;11.15;80.33
16431;BME280;8325;49.284;7.238;2023-05-01T06:30:05;98571.69;;;11.15;80.79
16431;BME280;8325;49.284;7.238;2023-05-01T06:34:18;98571.25;;;11.26;80.72
16431;BME280;8325;49.284;7.238;2023-05-01T06:38:35;98564.31;;;11.19;80.90
16431;BME280;8325;49.284;7.238;2023-05-01T06:42:47;98569.78;;;11.09;81.04
16431;BME280;8325;49.284;7.238;2023-05-01T06:46:59;98561.84;;;11.17;80.93
16431;BME280;8325;49.284;7.238;2023-05-01T06:51:12;98569.56;;;11.34;80.03
16431;BME280;8325;49.284;7.238;2023-05-01T06:55:26;98579.22;;;11.48;78.85
16431;BME280;8325;49.284;7.238;2023-05-01T06:59:41;98574.34;;;11.60;77.50
16431;BME280;8325;49.284;7.238;2023-05-01T07:03:53;98575.97;;;11.75;77.55
16431;BME280;8325;49.284;7.238;2023-05-01T07:08:05;98575.63;;;12.23;74.85
16431;BME280;8325;49.284;7.238;2023-05-01T07:12:17;98575.16;;;12.56;74.98
16431;BME280;8325;49.284;7.238;2023-05-01T07:16:28;98581.44;;;12.40;73.91
16431;BME280;8325;49.284;7.238;2023-05-01T07:20:40;98576.25;;;12.47;73.92
16431;BME280;8325;49.284;7.238;2023-05-01T07:24:52;98572.22;;;12.44;74.19
16431;BME280;8325;49.284;7.238;2023-05-01T07:29:04;98569.75;;;12.79;72.72
16431;BME280;8325;49.284;7.238;2023-05-01T07:33:15;98570.44;;;13.09;71.19
16431;BME280;8325;49.284;7.238;2023-05-01T07:37:27;98570.72;;;13.77;69.00
16431;BME280;8325;49.284;7.238;2023-05-01T07:41:39;98571.16;;;13.87;67.10
16431;BME280;8325;49.284;7.238;2023-05-01T07:45:58;98568.66;;;14.14;67.25
16431;BME280;8325;49.284;7.238;2023-05-01T07:50:11;98559.59;;;14.16;66.68
16431;BME280;8325;49.284;7.238;2023-05-01T07:54:23;98568.16;;;13.97;66.87
16431;BME280;8325;49.284;7.238;2023-05-01T07:58:35;98555.94;;;14.17;66.72
16431;BME280;8325;49.284;7.238;2023-05-01T08:02:47;98556.72;;;14.66;65.54
16431;BME280;8325;49.284;7.238;2023-05-01T08:06:59;98565.50;;;14.38;65.46
16431;BME280;8325;49.284;7.238;2023-05-01T08:11:10;98556.53;;;14.13;66.57
16431;BME280;8325;49.284;7.238;2023-05-01T08:15:22;98560.56;;;14.15;65.26
16431;BME280;8325;49.284;7.238;2023-05-01T08:19:34;98550.47;;;14.12;65.87
16431;BME280;8325;49.284;7.238;2023-05-01T08:23:46;98553.09;;;14.19;66.53
16431;BME280;8325;49.284;7.238;2023-05-01T08:27:58;98563.38;;;14.07;66.58
16431;BME280;8325;49.284;7.238;2023-05-01T08:32:09;98563.78;;;14.04;67.20
16431;BME280;8325;49.284;7.238;2023-05-01T08:36:21;98567.03;;;14.13;68.66
16431;BME280;8325;49.284;7.238;2023-05-01T08:40:35;98574.22;;;13.97;68.17
16431;BME280;8325;49.284;7.238;2023-05-01T08:44:48;98575.13;;;14.18;68.44
16431;BME280;8325;49.284;7.238;2023-05-01T08:49:02;98558.44;;;14.32;66.63
16431;BME280;8325;49.284;7.238;2023-05-01T08:53:16;98554.66;;;14.61;66.49
16431;BME280;8325;49.284;7.238;2023-05-01T08:57:29;98555.09;;;15.11;66.61
16431;BME280;8325;49.284;7.238;2023-05-01T09:01:41;98551.88;;;15.42;64.92
16431;BME280;8325;49.284;7.238;2023-05-01T09:05:54;98553.03;;;15.73;63.46
16431;BME280;8325;49.284;7.238;2023-05-01T09:10:06;98555.81;;;15.92;62.55
16431;BME280;8325;49.284;7.238;2023-05-01T09:14:18;98547.44;;;16.08;61.64
16431;BME280;8325;49.284;7.238;2023-05-01T09:18:30;98547.47;;;15.95;61.12
16431;BME280;8325;49.284;7.238;2023-05-01T09:22:48;98549.91;;;16.03;60.40
16431;BME280;8325;49.284;7.238;2023-05-01T09:26:59;98546.63;;;16.14;60.68
16431;BME280;8325;49.284;7.238;2023-05-01T09:35:50;98553.63;;;16.65;60.48
16431;BME280;8325;49.284;7.238;2023-05-01T09:40:10;98546.59;;;16.91;59.84
16431;BME280;8325;49.284;7.238;2023-05-01T09:44:22;98549.13;;;17.04;57.56
16431;BME280;8325;49.284;7.238;2023-05-01T09:48:34;98547.56;;;16.96;56.44
16431;BME280;8325;49.284;7.238;2023-05-01T09:52:49;98548.25;;;17.10;55.11
16431;BME280;8325;49.284;7.238;2023-05-01T09:57:02;98542.53;;;17.13;55.34
16431;BME280;8325;49.284;7.238;2023-05-01T10:01:15;98539.00;;;17.01;55.56
16431;BME280;8325;49.284;7.238;2023-05-01T10:05:41;98544.53;;;17.43;55.76
16431;BME280;8325;49.284;7.238;2023-05-01T10:09:53;98549.06;;;17.54;54.52
16431;BME280;8325;49.284;7.238;2023-05-01T10:14:09;98548.69;;;17.51;54.30
16431;BME280;8325;49.284;7.238;2023-05-01T10:18:21;98545.22;;;17.32;53.35
16431;BME280;8325;49.284;7.238;2023-05-01T10:22:33;98539.06;;;17.38;54.83
16431;BME280;8325;49.284;7.238;2023-05-01T10:26:47;98537.09;;;17.08;53.52
16431;BME280;8325;49.284;7.238;2023-05-01T10:30:59;98543.06;;;17.47;53.78
16431;BME280;8325;49.284;7.238;2023-05-01T10:35:13;98539.75;;;17.52;54.30
16431;BME280;8325;49.284;7.238;2023-05-01T10:39:34;98545.78;;;17.15;54.60
16431;BME280;8325;49.284;7.238;2023-05-01T10:44:18;98539.31;;;17.11;53.21
16431;BME280;8325;49.284;7.238;2023-05-01T10:57:41;98537.84;;;17.40;55.28
16431;BME280;8325;49.284;7.238;2023-05-01T11:01:52;98537.16;;;17.45;54.37
16431;BME280;8325;49.284;7.238;2023-05-01T11:06:04;98534.69;;;17.50;56.78
16431;BME280;8325;49.284;7.238;2023-05-01T11:10:26;98530.38;;;17.56;55.43
16431;BME280;8325;49.284;7.238;2023-05-01T11:19:43;98524.59;;;18.02;53.53
16431;BME280;8325;49.284;7.238;2023-05-01T11:23:55;98523.25;;;18.11;52.54
16431;BME280;8325;49.284;7.238;2023-05-01T11:28:07;98524.66;;;18.14;53.22
16431;BME280;8325;49.284;7.238;2023-05-01T11:32:26;98521.47;;;18.24;52.18
16431;BME280;8325;49.284;7.238;2023-05-01T11:36:49;98507.09;;;18.61;51.07
16431;BME280;8325;49.284;7.238;2023-05-01T11:41:01;98509.00;;;18.73;52.09
16431;BME280;8325;49.284;7.238;2023-05-01T11:45:18;98505.09;;;18.75;49.69
16431;BME280;8325;49.284;7.238;2023-05-01T11:49:29;98502.78;;;18.79;49.64
16431;BME280;8325;49.284;7.238;2023-05-01T11:53:41;98496.81;;;18.53;48.97
16431;BME280;8325;49.284;7.238;2023-05-01T11:57:53;98488.63;;;18.73;51.73
16431;BME280;8325;49.284;7.238;2023-05-01T12:02:16;98476.56;;;19.24;51.99
16431;BME280;8325;49.284;7.238;2023-05-01T12:06:43;98476.19;;;19.68;51.13
16431;BME280;8325;49.284;7.238;2023-05-01T12:10:56;98479.03;;;19.54;49.79
16431;BME280;8325;49.284;7.238;2023-05-01T12:15:08;98476.72;;;19.70;50.15
16431;BME280;8325;49.284;7.238;2023-05-01T12:19:20;98468.09;;;19.63;47.03
16431;BME280;8325;49.284;7.238;2023-05-01T12:23:35;98470.81;;;19.80;49.00
16431;BME280;8325;49.284;7.238;2023-05-01T12:27:47;98460.38;;;20.30;50.23
16431;BME280;8325;49.284;7.238;2023-05-01T12:31:59;98462.03;;;20.65;48.14
16431;BME280;8325;49.284;7.238;2023-05-01T12:36:11;98461.78;;;20.83;48.47
16431;BME280;8325;49.284;7.238;2023-05-01T12:40:22;98452.88;;;20.73;45.36
16431;BME280;8325;49.284;7.238;2023-05-01T12:44:34;98458.34;;;20.37;46.00
16431;BME280;8325;49.284;7.238;2023-05-01T12:48:45;98468.91;;;20.04;46.79
16431;BME280;8325;49.284;7.238;2023-05-01T12:53:01;98467.03;;;19.64;47.45
16431;BME280;8325;49.284;7.238;2023-05-01T12:57:14;98477.59;;;19.23;48.13
16431;BME280;8325;49.284;7.238;2023-05-01T13:01:27;98482.44;;;18.79;47.94
16431;BME280;8325;49.284;7.238;2023-05-01T13:05:56;98487.28;;;18.52;48.48
16431;BME280;8325;49.284;7.238;2023-05-01T13:10:09;98502.00;;;18.18;50.01
16431;BME280;8325;49.284;7.238;2023-05-01T13:14:21;98496.00;;;17.81;51.86
16431;BME280;8325;49.284;7.238;2023-05-01T13:18:32;98503.44;;;17.65;52.09
16431;BME280;8325;49.284;7.238;2023-05-01T13:22:44;98511.28;;;17.54;52.92
16431;BME280;8325;49.284;7.238;2023-05-01T13:26:56;98514.28;;;17.39;52.91
16431;BME280;8325;49.284;7.238;2023-05-01T13:31:15;98507.13;;;17.46;54.71
16431;BME280;8325;49.284;7.238;2023-05-01T13:35:27;98507.84;;;17.53;56.31
16431;BME280;8325;49.284;7.238;2023-05-01T13:39:42;98499.19;;;17.46;58.49
16431;BME280;8325;49.284;7.238;2023-05-01T13:43:55;98503.94;;;17.37;57.74
16431;BME280;8325;49.284;7.238;2023-05-01T13:48:08;98501.75;;;17.34;56.49
16431;BME280;8325;49.284;7.238;2023-05-01T13:52:20;98499.75;;;17.30;57.07
16431;BME280;8325;49.284;7.238;2023-05-01T13:56:34;98496.25;;;17.54;55.50
16431;BME280;8325;49.284;7.238;2023-05-01T14:00:46;98493.03;;;17.52;49.14
16431;BME280;8325;49.284;7.238;2023-05-01T14:04:57;98496.84;;;17.75;52.85
16431;BME280;8325;49.284;7.238;2023-05-01T14:09:11;98497.59;;;17.82;52.18
16431;BME280;8325;49.284;7.238;2023-05-01T14:13:25;98499.13;;;17.89;51.41
16431;BME280;8325;49.284;7.238;2023-05-01T14:17:37;98488.38;;;18.33;51.34
16431;BME280;8325;49.284;7.238;2023-05-01T14:21:49;98487.91;;;18.66;49.09
16431;BME280;8325;49.284;7.238;2023-05-01T14:26:00;98474.09;;;18.64;46.91
16431;BME280;8325;49.284;7.238;2023-05-01T14:30:38;98478.72;;;18.27;49.67
16431;BME280;8325;49.284;7.238;2023-05-01T14:34:49;98487.41;;;18.15;53.31
16431;BME280;8325;49.284;7.238;2023-05-01T14:39:01;98490.09;;;17.97;53.27
16431;BME280;8325;49.284;7.238;2023-05-01T14:43:18;98483.47;;;17.69;54.60
16431;BME280;8325;49.284;7.238;2023-05-01T14:47:30;98504.91;;;17.43;57.54
16431;BME280;8325;49.284;7.238;2023-05-01T14:51:41;98525.09;;;17.12;59.35
16431;BME280;8325;49.284;7.238;2023-05-01T14:55:53;98540.81;;;16.75;65.64
16431;BME280;8325;49.284;7.238;2023-05-01T15:00:05;98546.47;;;16.41;69.47
16431;BME280;8325;49.284;7.238;2023-05-01T15:04:17;98538.72;;;16.14;71.17
16431;BME280;8325;49.284;7.238;2023-05-01T15:08:29;98547.28;;;15.96;74.78
16431;BME280;8325;49.284;7.238;2023-05-01T15:12:42;98542.94;;;15.70;75.90
16431;BME280;8325;49.284;7.238;2023-05-01T15:16:54;98534.03;;;15.58;78.73
16431;BME280;8325;49.284;7.238;2023-05-01T15:21:06;98543.34;;;15.40;82.08
16431;BME280;8325;49.284;7.238;2023-05-01T15:25:17;98554.25;;;15.51;84.04
16431;BME280;8325;49.284;7.238;2023-05-01T15:29:29;98553.44;;;15.57;87.98
16431;BME280;8325;49.284;7.238;2023-05-01T15:33:40;98563.38;;;15.41;88.00
16431;BME280;8325;49.284;7.238;2023-05-01T15:37:52;98566.63;;;15.43;88.62
16431;BME280;8325;49.284;7.238;2023-05-01T15:42:05;98566.03;;;15.41;88.60
16431;BME280;8325;49.284;7.238;2023-05-01T15:46:17;98568.44;;;15.50;87.81
16431;BME280;8325;49.284;7.238;2023-05-01T15:50:30;98573.09;;;15.74;88.11
16431;BME280;8325;49.284;7.238;2023-05-01T15:54:44;98574.28;;;15.65;85.25
16431;BME280;8325;49.284;7.238;2023-05-01T15:59:00;98578.53;;;15.66;82.47
16431;BME280;8325;49.284;7.238;2023-05-01T16:03:12;98569.03;;;15.78;82.06
16431;BME280;8325;49.284;7.238;2023-05-01T16:07:24;98573.66;;;15.90;79.46
16431;BME280;8325;49.284;7.238;2023-05-01T16:11:37;98570.09;;;16.16;77.60
16431;BME280;8325;49.284;7.238;2023-05-01T16:15:49;98566.59;;;16.28;76.57
16431;BME280;8325;49.284;7.238;2023-05-01T16:20:00;98569.81;;;16.37;76.55
16431;BME280;8325;49.284;7.238;2023-05-01T16:24:13;98577.44;;;16.52;72.82
16431;BME280;8325;49.284;7.238;2023-05-01T16:28:25;98581.53;;;16.48;70.07
16431;BME280;8325;49.284;7.238;2023-05-01T16:32:37;98586.66;;;16.36;68.10
16431;BME280;8325;49.284;7.238;2023-05-01T16:36:49;98580.34;;;16.37;69.81
16431;BME280;8325;49.284;7.238;2023-05-01T16:41:01;98585.16;;;16.47;69.49
16431;BME280;8325;49.284;7.238;2023-05-01T16:45:12;98587.28;;;16.25;69.73
16431;BME280;8325;49.284;7.238;2023-05-01T16:49:25;98590.63;;;16.00;67.90
16431;BME280;8325;49.284;7.238;2023-05-01T16:53:40;98583.22;;;16.36;70.17
16431;BME280;8325;49.284;7.238;2023-05-01T16:57:51;98582.84;;;16.25;66.14
16431;BME280;8325;49.284;7.238;2023-05-01T17:02:04;98582.56;;;16.40;65.81
16431;BME280;8325;49.284;7.238;2023-05-01T17:06:17;98587.44;;;16.37;61.07
16431;BME280;8325;49.284;7.238;2023-05-01T17:10:28;98595.78;;;16.33;62.03
16431;BME280;8325;49.284;7.238;2023-05-01T17:14:40;98601.53;;;16.17;62.21
16431;BME280;8325;49.284;7.238;2023-05-01T17:18:51;98603.38;;;16.17;62.69
16431;BME280;8325;49.284;7.238;2023-05-01T17:23:03;98615.16;;;16.07;62.75
16431;BME280;8325;49.284;7.238;2023-05-01T17:27:15;98611.94;;;15.99;63.15
16431;BME280;8325;49.284;7.238;2023-05-01T17:31:26;98620.88;;;15.84;63.33
16431;BME280;8325;49.284;7.238;2023-05-01T17:35:38;98616.66;;;15.77;64.49
16431;BME280;8325;49.284;7.238;2023-05-01T17:39:49;98625.16;;;15.72;64.46
16431;BME280;8325;49.284;7.238;2023-05-01T17:44:01;98625.78;;;15.68;65.13
16431;BME280;8325;49.284;7.238;2023-05-01T17:48:12;98619.06;;;15.58;65.16
16431;BME280;8325;49.284;7.238;2023-05-01T17:52:24;98624.53;;;15.57;65.59
16431;BME280;8325;49.284;7.238;2023-05-01T17:56:35;98627.78;;;15.52;64.75
16431;BME280;8325;49.284;7.238;2023-05-01T18:00:47;98637.28;;;15.53;64.47
16431;BME280;8325;49.284;7.238;2023-05-01T18:04:59;98642.97;;;15.50;64.77
16431;BME280;8325;49.284;7.238;2023-05-01T18:09:12;98646.22;;;15.46;65.05
16431;BME280;8325;49.284;7.238;2023-05-01T18:13:23;98647.84;;;15.33;65.01
16431;BME280;8325;49.284;7.238;2023-05-01T18:17:39;98651.47;;;15.26;66.14
16431;BME280;8325;49.284;7.238;2023-05-01T18:21:50;98654.50;;;15.16;66.98
16431;BME280;8325;49.284;7.238;2023-05-01T18:26:02;98658.53;;;15.12;67.25
16431;BME280;8325;49.284;7.238;2023-05-01T18:30:14;98657.69;;;15.05;67.73
16431;BME280;8325;49.284;7.238;2023-05-01T18:34:25;98673.06;;;14.94;67.80
16431;BME280;8325;49.284;7.238;2023-05-01T18:38:37;98676.06;;;14.85;68.62
16431;BME280;8325;49.284;7.238;2023-05-01T18:42:48;98676.47;;;14.75;69.15
16431;BME280;8325;49.284;7.238;2023-05-01T18:47:00;98678.03;;;14.63;69.29
16431;BME280;8325;49.284;7.238;2023-05-01T18:51:12;98683.03;;;14.51;70.10
16431;BME280;8325;49.284;7.238;2023-05-01T18:55:25;98693.50;;;14.44;69.18
16431;BME280;8325;49.284;7.238;2023-05-01T18:59:37;98698.50;;;14.39;68.82
16431;BME280;8325;49.284;7.238;2023-05-01T19:03:48;98702.69;;;14.27;69.68
16431;BME280;8325;49.284;7.238;2023-05-01T19:08:00;98708.09;;;14.19;69.02
16431;BME280;8325;49.284;7.238;2023-05-01T19:12:15;98711.28;;;14.08;70.32
16431;BME280;8325;49.284;7.238;2023-05-01T19:16:26;98715.19;;;13.90;72.25
16431;BME280;8325;49.284;7.238;2023-05-01T19:20:38;98721.09;;;13.71;73.58
16431;BME280;8325;49.284;7.238;2023-05-01T19:24:50;98721.44;;;13.61;74.83
16431;BME280;8325;49.284;7.238;2023-05-01T19:29:01;98734.25;;;13.49;75.56
16431;BME280;8325;49.284;7.238;2023-05-01T19:33:13;98737.78;;;13.42;75.24
16431;BME280;8325;49.284;7.238;2023-05-01T19:37:25;98746.00;;;13.17;79.27
16431;BME280;8325;49.284;7.238;2023-05-01T19:41:37;98751.44;;;13.16;79.38
16431;BME280;8325;49.284;7.238;2023-05-01T19:45:48;98758.25;;;12.95;79.15
16431;BME280;8325;49.284;7.238;2023-05-01T19:50:00;98769.03;;;12.85;79.72
16431;BME280;8325;49.284;7.238;2023-05-01T19:54:12;98771.75;;;12.77;80.94
16431;BME280;8325;49.284;7.238;2023-05-01T19:58:25;98786.84;;;12.60;81.86
16431;BME280;8325;49.284;7.238;2023-05-01T20:02:38;98778.09;;;12.53;80.93
16431;BME280;8325;49.284;7.238;2023-05-01T20:06:49;98785.31;;;12.36;82.28
16431;BME280;8325;49.284;7.238;2023-05-01T20:11:01;98792.97;;;12.23;83.06
16431;BME280;8325;49.284;7.238;2023-05-01T20:15:13;98800.25;;;12.13;83.49
16431;BME280;8325;49.284;7.238;2023-05-01T20:19:25;98814.88;;;12.07;84.57
16431;BME280;8325;49.284;7.238;2023-05-01T20:23:38;98818.56;;;11.98;84.64
16431;BME280;8325;49.284;7.238;2023-05-01T20:27:50;98827.63;;;11.87;85.25
16431;BME280;8325;49.284;7.238;2023-05-01T20:32:01;98835.34;;;11.81;85.92
16431;BME280;8325;49.284;7.238;2023-05-01T20:36:13;98838.69;;;11.66;86.68
16431;BME280;8325;49.284;7.238;2023-05-01T20:40:25;98847.31;;;11.52;88.28
16431;BME280;8325;49.284;7.238;2023-05-01T20:44:38;98849.94;;;11.52;90.07
16431;BME280;8325;49.284;7.238;2023-05-01T20:48:50;98852.94;;;11.41;90.19
16431;BME280;8325;49.284;7.238;2023-05-01T20:53:02;98851.53;;;11.30;90.46
16431;BME280;8325;49.284;7.238;2023-05-01T20:57:14;98851.56;;;11.14;90.91
16431;BME280;8325;49.284;7.238;2023-05-01T21:01:30;98861.91;;;11.07;91.90
16431;BME280;8325;49.284;7.238;2023-05-01T21:05:42;98861.63;;;10.94;92.43
16431;BME280;8325;49.284;7.238;2023-05-01T21:09:53;98867.88;;;10.85;92.70
16431;BME280;8325;49.284;7.238;2023-05-01T21:14:06;98870.50;;;10.76;93.40
16431;BME280;8325;49.284;7.238;2023-05-01T21:18:18;98866.75;;;10.71;93.39
16431;BME280;8325;49.284;7.238;2023-05-01T21:22:30;98876.38;;;10.70;93.96
16431;BME280;8325;49.284;7.238;2023-05-01T21:26:42;98876.38;;;10.62;94.14
